sensor_id;sensor_type;location;lat;lon;timestamp;temperature;humidity
23579;DHT22;11967;50.852;4.400;2023-06-04T00:00:49;20.50;67.40
23579;DHT22;11967;50.852;4.400;2023-06-04T00:03:15;20.50;67.30
23579;DHT22;11967;50.852;4.400;2023-06-04T00:05:40;20.50;67.90
23579;DHT22;11967;50.852;4.400;2023-06-04T00:08:06;20.50;68.00
23579;DHT22;11967;50.852;4.400;2023-06-04T00:10:31;20.40;67.80
23579;DHT22;11967;50.852;4.400;2023-06-04T00:12:59;20.40;68.50
23579;DHT22;11967;50.852;4.400;2023-06-04T00:15:25;20.30;68.50
23579;DHT22;11967;50.852;4.400;2023-06-04T00:17:50;20.30;68.60
23579;DHT22;11967;50.852;4.400;2023-06-04T00:20:17;20.30;69.00
23579;DHT22;11967;50.852;4.400;2023-06-04T00:22:42;20.30;69.10
23579;DHT22;11967;50.852;4.400;2023-06-04T00:25:11;20.30;68.80
23579;DHT22;11967;50.852;4.400;2023-06-04T00:27:37;20.20;69.20
23579;DHT22;11967;50.852;4.400;2023-06-04T00:30:03;20.10;69.30
23579;DHT22;11967;50.852;4.400;2023-06-04T00:32:29;20.10;69.80
23579;DHT22;11967;50.852;4.400;2023-06-04T00:34:56;20.10;71.00
23579;DHT22;11967;50.852;4.400;2023-06-04T00:37:23;20.20;70.20
23579;DHT22;11967;50.852;4.400;2023-06-04T00:39:49;20.20;70.10
23579;DHT22;11967;50.852;4.400;2023-06-04T00:42:15;20.20;70.30
23579;DHT22;11967;50.852;4.400;2023-06-04T00:44:41;20.10;70.30
23579;DHT22;11967;50.852;4.400;2023-06-04T00:47:14;20.10;70.60
23579;DHT22;11967;50.852;4.400;2023-06-04T00:49:41;20.10;70.50
23579;DHT22;11967;50.852;4.400;2023-06-04T00:52:12;20.00;70.70
23579;DHT22;11967;50.852;4.400;2023-06-04T00:54:39;20.00;71.00
23579;DHT22;11967;50.852;4.400;2023-06-04T00:57:06;19.90;70.90
23579;DHT22;11967;50.852;4.400;2023-06-04T00:59:33;19.90;71.10
23579;DHT22;11967;50.852;4.400;2023-06-04T01:02:07;19.80;71.60
23579;DHT22;11967;50.852;4.400;2023-06-04T01:07:22;19.80;71.90
23579;DHT22;11967;50.852;4.400;2023-06-04T01:09:49;19.80;72.30
23579;DHT22;11967;50.852;4.400;2023-06-04T01:12:15;19.70;72.70
23579;DHT22;11967;50.852;4.400;2023-06-04T01:14:41;19.70;72.60
23579;DHT22;11967;50.852;4.400;2023-06-04T01:17:18;19.70;73.10
23579;DHT22;11967;50.852;4.400;2023-06-04T01:20:14;19.80;73.10
23579;DHT22;11967;50.852;4.400;2023-06-04T01:25:37;19.70;73.20
23579;DHT22;11967;50.852;4.400;2023-06-04T01:28:13;19.70;73.60
23579;DHT22;11967;50.852;4.400;2023-06-04T01:30:44;19.50;73.60
23579;DHT22;11967;50.852;4.400;2023-06-04T01:33:16;19.40;73.90
23579;DHT22;11967;50.852;4.400;2023-06-04T01:35:43;19.40;74.50
23579;DHT22;11967;50.852;4.400;2023-06-04T01:38:09;19.30;74.40
23579;DHT22;11967;50.852;4.400;2023-06-04T01:40:35;19.40;75.20
23579;DHT22;11967;50.852;4.400;2023-06-04T01:43:00;19.40;75.50
23579;DHT22;11967;50.852;4.400;2023-06-04T01:45:27;19.40;75.30
23579;DHT22;11967;50.852;4.400;2023-06-04T01:47:54;19.30;75.50
23579;DHT22;11967;50.852;4.400;2023-06-04T01:50:20;19.30;76.00
23579;DHT22;11967;50.852;4.400;2023-06-04T01:52:46;19.20;76.10
23579;DHT22;11967;50.852;4.400;2023-06-04T01:55:15;19.30;76.50
23579;DHT22;11967;50.852;4.400;2023-06-04T01:57:42;19.20;76.50
23579;DHT22;11967;50.852;4.400;2023-06-04T02:00:10;19.20;76.50
23579;DHT22;11967;50.852;4.400;2023-06-04T02:02:40;19.20;77.10
23579;DHT22;11967;50.852;4.400;2023-06-04T02:05:07;19.20;77.40
23579;DHT22;11967;50.852;4.400;2023-06-04T02:07:39;19.20;78.90
23579;DHT22;11967;50.852;4.400;2023-06-04T02:10:09;19.10;78.50
23579;DHT22;11967;50.852;4.400;2023-06-04T02:12:40;19.10;78.70
23579;DHT22;11967;50.852;4.400;2023-06-04T02:15:07;19.00;79.30
23579;DHT22;11967;50.852;4.400;2023-06-04T02:17:33;19.00;79.80
23579;DHT22;11967;50.852;4.400;2023-06-04T02:20:03;19.00;80.30
23579;DHT22;11967;50.852;4.400;2023-06-04T02:22:30;19.00;80.80
23579;DHT22;11967;50.852;4.400;2023-06-04T02:24:55;18.90;81.00
23579;DHT22;11967;50.852;4.400;2023-06-04T02:27:21;18.90;81.40
23579;DHT22;11967;50.852;4.400;2023-06-04T02:29:47;18.90;81.80
23579;DHT22;11967;50.852;4.400;2023-06-04T02:32:13;18.80;82.10
23579;DHT22;11967;50.852;4.400;2023-06-04T02:34:38;18.80;82.40
23579;DHT22;11967;50.852;4.400;2023-06-04T02:37:04;18.80;82.80
23579;DHT22;11967;50.852;4.400;2023-06-04T02:39:30;18.70;83.40
23579;DHT22;11967;50.852;4.400;2023-06-04T02:41:56;18.80;84.30
23579;DHT22;11967;50.852;4.400;2023-06-04T02:44:21;18.70;84.00
23579;DHT22;11967;50.852;4.400;2023-06-04T02:46:47;18.80;84.50
23579;DHT22;11967;50.852;4.400;2023-06-04T02:49:12;18.70;84.90
23579;DHT22;11967;50.852;4.400;2023-06-04T02:51:42;18.70;84.70
23579;DHT22;11967;50.852;4.400;2023-06-04T02:54:08;18.70;85.10
23579;DHT22;11967;50.852;4.400;2023-06-04T02:56:35;18.70;85.40
23579;DHT22;11967;50.852;4.400;2023-06-04T02:59:01;18.70;85.60
23579;DHT22;11967;50.852;4.400;2023-06-04T03:01:27;18.60;86.00
23579;DHT22;11967;50.852;4.400;2023-06-04T03:03:54;18.60;86.20
23579;DHT22;11967;50.852;4.400;2023-06-04T03:06:21;18.60;87.20
23579;DHT22;11967;50.852;4.400;2023-06-04T03:08:50;18.60;86.80
23579;DHT22;11967;50.852;4.400;2023-06-04T03:11:18;18.60;87.40
23579;DHT22;11967;50.852;4.400;2023-06-04T03:13:48;18.60;87.60
23579;DHT22;11967;50.852;4.400;2023-06-04T03:16:14;18.60;87.70
23579;DHT22;11967;50.852;4.400;2023-06-04T03:18:40;18.60;88.00
23579;DHT22;11967;50.852;4.400;2023-06-04T03:21:07;18.50;88.40
23579;DHT22;11967;50.852;4.400;2023-06-04T03:23:33;18.40;89.20
23579;DHT22;11967;50.852;4.400;2023-06-04T03:26:01;18.50;89.40
23579;DHT22;11967;50.852;4.400;2023-06-04T03:28:27;18.50;89.40
23579;DHT22;11967;50.852;4.400;2023-06-04T03:30:53;18.50;90.00
23579;DHT22;11967;50.852;4.400;2023-06-04T03:33:19;18.40;90.20
23579;DHT22;11967;50.852;4.400;2023-06-04T03:35:45;18.40;90.50
23579;DHT22;11967;50.852;4.400;2023-06-04T03:38:11;18.40;90.70
23579;DHT22;11967;50.852;4.400;2023-06-04T03:40:36;18.30;90.70
23579;DHT22;11967;50.852;4.400;2023-06-04T03:43:02;18.20;91.10
23579;DHT22;11967;50.852;4.400;2023-06-04T03:45:30;18.20;91.20
23579;DHT22;11967;50.852;4.400;2023-06-04T03:47:55;18.20;91.50
23579;DHT22;11967;50.852;4.400;2023-06-04T03:50:21;18.20;91.80
23579;DHT22;11967;50.852;4.400;2023-06-04T03:52:48;18.10;92.00
23579;DHT22;11967;50.852;4.400;2023-06-04T03:55:14;18.10;92.20
23579;DHT22;11967;50.852;4.400;2023-06-04T03:57:40;18.10;92.30
23579;DHT22;11967;50.852;4.400;2023-06-04T04:00:07;18.10;92.70
23579;DHT22;11967;50.852;4.400;2023-06-04T04:02:35;18.10;93.00
23579;DHT22;11967;50.852;4.400;2023-06-04T04:05:01;18.00;93.10
23579;DHT22;11967;50.852;4.400;2023-06-04T04:07:28;18.10;93.80
23579;DHT22;11967;50.852;4.400;2023-06-04T04:09:54;18.10;93.90
23579;DHT22;11967;50.852;4.400;2023-06-04T04:12:19;18.10;94.20
23579;DHT22;11967;50.852;4.400;2023-06-04T04:14:45;18.10;94.00
23579;DHT22;11967;50.852;4.400;2023-06-04T04:17:13;18.10;94.10
23579;DHT22;11967;50.852;4.400;2023-06-04T04:19:39;18.10;94.20
23579;DHT22;11967;50.852;4.400;2023-06-04T04:22:04;18.00;94.50
23579;DHT22;11967;50.852;4.400;2023-06-04T04:24:30;18.00;94.70
23579;DHT22;11967;50.852;4.400;2023-06-04T04:26:56;18.00;95.00
23579;DHT22;11967;50.852;4.400;2023-06-04T04:29:25;18.00;95.10
23579;DHT22;11967;50.852;4.400;2023-06-04T04:31:51;18.00;95.30
23579;DHT22;11967;50.852;4.400;2023-06-04T04:34:18;18.00;95.50
23579;DHT22;11967;50.852;4.400;2023-06-04T04:36:46;17.90;95.80
23579;DHT22;11967;50.852;4.400;2023-06-04T04:39:19;17.90;96.00
23579;DHT22;11967;50.852;4.400;2023-06-04T04:41:45;18.00;96.20
23579;DHT22;11967;50.852;4.400;2023-06-04T04:44:11;18.00;96.30
23579;DHT22;11967;50.852;4.400;2023-06-04T04:46:37;18.00;96.50
23579;DHT22;11967;50.852;4.400;2023-06-04T04:49:02;17.90;96.70
23579;DHT22;11967;50.852;4.400;2023-06-04T04:51:28;17.90;97.10
23579;DHT22;11967;50.852;4.400;2023-06-04T04:53:53;17.90;97.30
23579;DHT22;11967;50.852;4.400;2023-06-04T04:56:20;17.90;97.60
23579;DHT22;11967;50.852;4.400;2023-06-04T04:58:48;17.90;97.70
23579;DHT22;11967;50.852;4.400;2023-06-04T05:01:13;17.80;98.00
23579;DHT22;11967;50.852;4.400;2023-06-04T05:03:39;17.80;98.10
23579;DHT22;11967;50.852;4.400;2023-06-04T05:06:06;17.80;98.40
23579;DHT22;11967;50.852;4.400;2023-06-04T05:08:31;17.80;98.70
23579;DHT22;11967;50.852;4.400;2023-06-04T05:10:57;17.80;98.90
23579;DHT22;11967;50.852;4.400;2023-06-04T05:13:23;17.90;99.00
23579;DHT22;11967;50.852;4.400;2023-06-04T05:15:48;17.90;99.10
23579;DHT22;11967;50.852;4.400;2023-06-04T05:18:18;18.00;99.20
23579;DHT22;11967;50.852;4.400;2023-06-04T05:20:46;18.00;99.60
23579;DHT22;11967;50.852;4.400;2023-06-04T05:23:12;17.90;99.40
23579;DHT22;11967;50.852;4.400;2023-06-04T05:25:38;17.90;99.60
23579;DHT22;11967;50.852;4.400;2023-06-04T05:28:04;18.00;99.70
23579;DHT22;11967;50.852;4.400;2023-06-04T05:30:32;18.10;99.80
23579;DHT22;11967;50.852;4.400;2023-06-04T05:32:59;18.10;99.70
23579;DHT22;11967;50.852;4.400;2023-06-04T05:35:25;18.10;99.80
23579;DHT22;11967;50.852;4.400;2023-06-04T05:37:50;18.10;99.90
23579;DHT22;11967;50.852;4.400;2023-06-04T05:40:22;18.10;99.90
23579;DHT22;11967;50.852;4.400;2023-06-04T05:42:48;18.10;99.90
23579;DHT22;11967;50.852;4.400;2023-06-04T05:45:14;18.10;99.90
23579;DHT22;11967;50.852;4.400;2023-06-04T05:47:39;18.10;99.90
23579;DHT22;11967;50.852;4.400;2023-06-04T05:50:05;18.20;99.90
23579;DHT22;11967;50.852;4.400;2023-06-04T05:52:32;18.20;99.90
23579;DHT22;11967;50.852;4.400;2023-06-04T05:54:58;18.20;99.90
23579;DHT22;11967;50.852;4.400;2023-06-04T05:57:24;18.20;99.90
23579;DHT22;11967;50.852;4.400;2023-06-04T05:59:49;18.20;99.90
23579;DHT22;11967;50.852;4.400;2023-06-04T06:02:15;18.20;99.90
23579;DHT22;11967;50.852;4.400;2023-06-04T06:04:41;18.20;99.90
23579;DHT22;11967;50.852;4.400;2023-06-04T06:07:07;18.30;99.90
23579;DHT22;11967;50.852;4.400;2023-06-04T06:09:33;18.40;99.90
23579;DHT22;11967;50.852;4.400;2023-06-04T06:11:58;18.40;99.90
23579;DHT22;11967;50.852;4.400;2023-06-04T06:14:24;18.40;99.90
23579;DHT22;11967;50.852;4.400;2023-06-04T06:16:51;18.50;99.90
23579;DHT22;11967;50.852;4.400;2023-06-04T06:19:16;18.40;99.90
23579;DHT22;11967;50.852;4.400;2023-06-04T06:21:42;18.40;99.90
23579;DHT22;11967;50.852;4.400;2023-06-04T06:24:08;18.40;99.90
23579;DHT22;11967;50.852;4.400;2023-06-04T06:26:33;18.50;99.90
23579;DHT22;11967;50.852;4.400;2023-06-04T06:28:59;18.50;99.90
23579;DHT22;11967;50.852;4.400;2023-06-04T06:31:25;18.50;99.90
23579;DHT22;11967;50.852;4.400;2023-06-04T06:33:51;18.60;99.90
23579;DHT22;11967;50.852;4.400;2023-06-04T06:36:17;18.60;99.90
23579;DHT22;11967;50.852;4.400;2023-06-04T06:38:44;18.70;99.90
23579;DHT22;11967;50.852;4.400;2023-06-04T06:41:10;18.60;99.90
23579;DHT22;11967;50.852;4.400;2023-06-04T06:43:36;18.60;99.90
23579;DHT22;11967;50.852;4.400;2023-06-04T06:46:02;18.70;99.90
23579;DHT22;11967;50.852;4.400;2023-06-04T06:48:27;18.80;99.90
23579;DHT22;11967;50.852;4.400;2023-06-04T06:50:54;18.80;99.90
23579;DHT22;11967;50.852;4.400;2023-06-04T06:53:20;18.90;99.80
23579;DHT22;11967;50.852;4.400;2023-06-04T06:55:46;18.90;99.60
23579;DHT22;11967;50.852;4.400;2023-06-04T06:58:11;18.90;99.50
23579;DHT22;11967;50.852;4.400;2023-06-04T07:00:37;18.90;99.30
23579;DHT22;11967;50.852;4.400;2023-06-04T07:03:03;18.90;99.10
23579;DHT22;11967;50.852;4.400;2023-06-04T07:05:29;19.00;98.70
23579;DHT22;11967;50.852;4.400;2023-06-04T07:07:55;19.10;98.40
23579;DHT22;11967;50.852;4.400;2023-06-04T07:10:22;19.20;98.40
23579;DHT22;11967;50.852;4.400;2023-06-04T07:12:48;19.20;98.10
23579;DHT22;11967;50.852;4.400;2023-06-04T07:15:14;19.20;98.00
23579;DHT22;11967;50.852;4.400;2023-06-04T07:17:39;19.20;98.00
23579;DHT22;11967;50.852;4.400;2023-06-04T07:20:06;19.20;97.90
23579;DHT22;11967;50.852;4.400;2023-06-04T07:22:33;19.20;97.70
23579;DHT22;11967;50.852;4.400;2023-06-04T07:24:58;19.30;97.50
23579;DHT22;11967;50.852;4.400;2023-06-04T07:27:24;19.30;97.60
23579;DHT22;11967;50.852;4.400;2023-06-04T07:29:51;19.40;97.90
23579;DHT22;11967;50.852;4.400;2023-06-04T07:32:17;19.50;97.40
23579;DHT22;11967;50.852;4.400;2023-06-04T07:34:43;19.50;97.40
23579;DHT22;11967;50.852;4.400;2023-06-04T07:37:08;19.60;97.40
23579;DHT22;11967;50.852;4.400;2023-06-04T07:39:35;19.70;97.30
23579;DHT22;11967;50.852;4.400;2023-06-04T07:42:00;19.70;97.10
23579;DHT22;11967;50.852;4.400;2023-06-04T07:44:26;19.80;97.10
23579;DHT22;11967;50.852;4.400;2023-06-04T07:46:52;19.80;96.70
23579;DHT22;11967;50.852;4.400;2023-06-04T07:49:17;19.80;96.40
23579;DHT22;11967;50.852;4.400;2023-06-04T07:51:43;19.80;96.30
23579;DHT22;11967;50.852;4.400;2023-06-04T07:54:09;19.90;95.90
23579;DHT22;11967;50.852;4.400;2023-06-04T07:56:35;20.00;95.70
23579;DHT22;11967;50.852;4.400;2023-06-04T07:59:01;20.00;95.70
23579;DHT22;11967;50.852;4.400;2023-06-04T08:01:27;20.10;95.60
23579;DHT22;11967;50.852;4.400;2023-06-04T08:03:53;20.10;95.60
23579;DHT22;11967;50.852;4.400;2023-06-04T08:06:18;20.20;95.50
23579;DHT22;11967;50.852;4.400;2023-06-04T08:08:45;20.20;95.20
23579;DHT22;11967;50.852;4.400;2023-06-04T08:11:17;20.30;94.70
23579;DHT22;11967;50.852;4.400;2023-06-04T08:13:43;20.40;94.20
23579;DHT22;11967;50.852;4.400;2023-06-04T08:16:09;20.40;94.20
23579;DHT22;11967;50.852;4.400;2023-06-04T08:18:40;20.40;93.90
23579;DHT22;11967;50.852;4.400;2023-06-04T08:21:10;20.40;93.80
23579;DHT22;11967;50.852;4.400;2023-06-04T08:23:46;20.40;93.70
23579;DHT22;11967;50.852;4.400;2023-06-04T08:26:12;20.60;94.90
23579;DHT22;11967;50.852;4.400;2023-06-04T08:28:38;20.70;95.10
23579;DHT22;11967;50.852;4.400;2023-06-04T08:31:05;20.70;93.90
23579;DHT22;11967;50.852;4.400;2023-06-04T08:33:34;20.80;93.60
23579;DHT22;11967;50.852;4.400;2023-06-04T08:35:59;20.90;93.10
23579;DHT22;11967;50.852;4.400;2023-06-04T08:38:25;20.90;92.70
23579;DHT22;11967;50.852;4.400;2023-06-04T08:40:52;20.90;92.40
23579;DHT22;11967;50.852;4.400;2023-06-04T08:43:19;20.90;92.10
23579;DHT22;11967;50.852;4.400;2023-06-04T08:45:49;21.00;92.20
23579;DHT22;11967;50.852;4.400;2023-06-04T08:48:18;21.00;92.10
23579;DHT22;11967;50.852;4.400;2023-06-04T08:50:48;21.10;92.80
23579;DHT22;11967;50.852;4.400;2023-06-04T08:53:15;21.20;92.70
23579;DHT22;11967;50.852;4.400;2023-06-04T08:55:41;21.20;91.40
23579;DHT22;11967;50.852;4.400;2023-06-04T08:58:10;21.20;91.00
23579;DHT22;11967;50.852;4.400;2023-06-04T09:00:36;21.20;90.80
23579;DHT22;11967;50.852;4.400;2023-06-04T09:03:02;21.20;89.90
23579;DHT22;11967;50.852;4.400;2023-06-04T09:05:31;21.10;89.60
23579;DHT22;11967;50.852;4.400;2023-06-04T09:08:00;21.20;88.90
23579;DHT22;11967;50.852;4.400;2023-06-04T09:10:26;21.20;88.30
23579;DHT22;11967;50.852;4.400;2023-06-04T09:12:56;21.30;87.90
23579;DHT22;11967;50.852;4.400;2023-06-04T09:15:23;21.30;88.20
23579;DHT22;11967;50.852;4.400;2023-06-04T09:17:48;21.20;88.30
23579;DHT22;11967;50.852;4.400;2023-06-04T09:20:21;21.30;88.60
23579;DHT22;11967;50.852;4.400;2023-06-04T09:22:47;21.40;88.30
23579;DHT22;11967;50.852;4.400;2023-06-04T09:25:24;21.50;88.00
23579;DHT22;11967;50.852;4.400;2023-06-04T09:28:05;21.50;87.20
23579;DHT22;11967;50.852;4.400;2023-06-04T09:30:32;21.50;87.30
23579;DHT22;11967;50.852;4.400;2023-06-04T09:33:10;21.50;87.00
23579;DHT22;11967;50.852;4.400;2023-06-04T09:35:37;21.60;86.10
23579;DHT22;11967;50.852;4.400;2023-06-04T09:38:05;21.60;85.90
23579;DHT22;11967;50.852;4.400;2023-06-04T09:40:37;21.70;85.30
23579;DHT22;11967;50.852;4.400;2023-06-04T09:43:03;21.70;84.90
23579;DHT22;11967;50.852;4.400;2023-06-04T09:45:35;21.70;84.80
23579;DHT22;11967;50.852;4.400;2023-06-04T09:48:02;21.80;84.20
23579;DHT22;11967;50.852;4.400;2023-06-04T09:50:32;21.80;83.90
23579;DHT22;11967;50.852;4.400;2023-06-04T09:53:19;21.90;82.70
23579;DHT22;11967;50.852;4.400;2023-06-04T09:56:00;22.00;82.60
23579;DHT22;11967;50.852;4.400;2023-06-04T09:58:27;22.00;82.50
23579;DHT22;11967;50.852;4.400;2023-06-04T10:00:55;22.10;82.50
23579;DHT22;11967;50.852;4.400;2023-06-04T10:03:24;22.10;82.40
23579;DHT22;11967;50.852;4.400;2023-06-04T10:05:53;22.20;81.50
23579;DHT22;11967;50.852;4.400;2023-06-04T10:08:22;22.30;80.90
23579;DHT22;11967;50.852;4.400;2023-06-04T10:10:51;22.40;80.80
23579;DHT22;11967;50.852;4.400;2023-06-04T10:13:20;22.40;80.80
23579;DHT22;11967;50.852;4.400;2023-06-04T10:15:46;22.30;80.50
23579;DHT22;11967;50.852;4.400;2023-06-04T10:18:14;22.30;80.70
23579;DHT22;11967;50.852;4.400;2023-06-04T10:20:40;22.30;80.50
23579;DHT22;11967;50.852;4.400;2023-06-04T10:23:08;22.40;79.80
23579;DHT22;11967;50.852;4.400;2023-06-04T10:25:37;22.50;79.90
23579;DHT22;11967;50.852;4.400;2023-06-04T10:28:03;22.60;79.50
23579;DHT22;11967;50.852;4.400;2023-06-04T10:30:30;22.60;78.50
23579;DHT22;11967;50.852;4.400;2023-06-04T10:32:57;22.70;78.50
23579;DHT22;11967;50.852;4.400;2023-06-04T10:35:33;22.80;78.40
23579;DHT22;11967;50.852;4.400;2023-06-04T10:38:10;22.90;77.90
23579;DHT22;11967;50.852;4.400;2023-06-04T10:40:37;22.90;77.00
23579;DHT22;11967;50.852;4.400;2023-06-04T10:43:10;22.90;76.60
23579;DHT22;11967;50.852;4.400;2023-06-04T10:45:37;23.00;75.00
23579;DHT22;11967;50.852;4.400;2023-06-04T10:48:04;22.90;74.10
23579;DHT22;11967;50.852;4.400;2023-06-04T10:50:30;22.90;74.40
23579;DHT22;11967;50.852;4.400;2023-06-04T10:52:56;22.80;74.70
23579;DHT22;11967;50.852;4.400;2023-06-04T10:55:24;23.00;75.20
23579;DHT22;11967;50.852;4.400;2023-06-04T10:57:53;23.00;74.10
23579;DHT22;11967;50.852;4.400;2023-06-04T11:00:19;23.10;74.80
23579;DHT22;11967;50.852;4.400;2023-06-04T11:02:55;23.20;75.00
23579;DHT22;11967;50.852;4.400;2023-06-04T11:05:21;23.20;75.20
23579;DHT22;11967;50.852;4.400;2023-06-04T11:07:49;23.30;75.60
23579;DHT22;11967;50.852;4.400;2023-06-04T11:10:16;23.40;75.00
23579;DHT22;11967;50.852;4.400;2023-06-04T11:12:47;23.40;74.70
23579;DHT22;11967;50.852;4.400;2023-06-04T11:15:16;23.50;72.70
23579;DHT22;11967;50.852;4.400;2023-06-04T11:17:52;23.60;73.90
23579;DHT22;11967;50.852;4.400;2023-06-04T11:20:19;23.70;74.10
23579;DHT22;11967;50.852;4.400;2023-06-04T11:22:56;23.80;74.00
23579;DHT22;11967;50.852;4.400;2023-06-04T11:25:24;23.70;72.60
23579;DHT22;11967;50.852;4.400;2023-06-04T11:27:52;23.60;72.00
23579;DHT22;11967;50.852;4.400;2023-06-04T11:30:19;23.70;71.80
23579;DHT22;11967;50.852;4.400;2023-06-04T11:32:48;23.70;71.30
23579;DHT22;11967;50.852;4.400;2023-06-04T11:35:17;23.70;71.30
23579;DHT22;11967;50.852;4.400;2023-06-04T11:37:53;23.70;70.70
23579;DHT22;11967;50.852;4.400;2023-06-04T11:40:20;23.80;71.10
23579;DHT22;11967;50.852;4.400;2023-06-04T11:42:47;23.90;70.80
23579;DHT22;11967;50.852;4.400;2023-06-04T11:45:15;24.00;70.70
23579;DHT22;11967;50.852;4.400;2023-06-04T11:47:47;24.00;69.80
23579;DHT22;11967;50.852;4.400;2023-06-04T11:50:18;23.90;69.40
23579;DHT22;11967;50.852;4.400;2023-06-04T11:52:44;24.00;69.30
23579;DHT22;11967;50.852;4.400;2023-06-04T11:55:11;24.00;69.60
23579;DHT22;11967;50.852;4.400;2023-06-04T11:57:38;24.10;69.30
23579;DHT22;11967;50.852;4.400;2023-06-04T12:00:07;24.10;68.50
23579;DHT22;11967;50.852;4.400;2023-06-04T12:02:36;24.10;68.60
23579;DHT22;11967;50.852;4.400;2023-06-04T12:05:16;24.20;68.10
23579;DHT22;11967;50.852;4.400;2023-06-04T12:07:46;24.30;67.60
23579;DHT22;11967;50.852;4.400;2023-06-04T12:10:13;24.30;67.70
23579;DHT22;11967;50.852;4.400;2023-06-04T12:12:39;24.30;67.30
23579;DHT22;11967;50.852;4.400;2023-06-04T12:15:06;24.30;67.10
23579;DHT22;11967;50.852;4.400;2023-06-04T12:17:32;24.40;66.60
23579;DHT22;11967;50.852;4.400;2023-06-04T12:19:58;24.50;66.40
23579;DHT22;11967;50.852;4.400;2023-06-04T12:22:25;24.30;66.10
23579;DHT22;11967;50.852;4.400;2023-06-04T12:24:55;24.30;65.60
23579;DHT22;11967;50.852;4.400;2023-06-04T12:27:23;24.30;65.70
23579;DHT22;11967;50.852;4.400;2023-06-04T12:30:04;24.40;65.60
23579;DHT22;11967;50.852;4.400;2023-06-04T12:32:30;24.50;65.00
23579;DHT22;11967;50.852;4.400;2023-06-04T12:34:56;24.50;64.70
23579;DHT22;11967;50.852;4.400;2023-06-04T12:37:23;24.50;65.10
23579;DHT22;11967;50.852;4.400;2023-06-04T12:39:51;24.50;64.90
23579;DHT22;11967;50.852;4.400;2023-06-04T12:42:18;24.60;64.90
23579;DHT22;11967;50.852;4.400;2023-06-04T12:44:45;24.70;64.60
23579;DHT22;11967;50.852;4.400;2023-06-04T12:47:10;24.70;64.00
23579;DHT22;11967;50.852;4.400;2023-06-04T12:49:37;24.70;64.20
23579;DHT22;11967;50.852;4.400;2023-06-04T12:52:03;24.80;63.90
23579;DHT22;11967;50.852;4.400;2023-06-04T12:54:29;24.70;63.70
23579;DHT22;11967;50.852;4.400;2023-06-04T12:56:55;24.80;64.00
23579;DHT22;11967;50.852;4.400;2023-06-04T12:59:27;25.00;64.70
23579;DHT22;11967;50.852;4.400;2023-06-04T13:01:54;25.10;64.10
23579;DHT22;11967;50.852;4.400;2023-06-04T13:04:20;25.10;64.10
23579;DHT22;11967;50.852;4.400;2023-06-04T13:06:46;25.00;62.80
23579;DHT22;11967;50.852;4.400;2023-06-04T13:09:12;25.00;62.10
23579;DHT22;11967;50.852;4.400;2023-06-04T13:11:40;24.90;62.00
23579;DHT22;11967;50.852;4.400;2023-06-04T13:14:06;24.90;61.90
23579;DHT22;11967;50.852;4.400;2023-06-04T13:16:32;24.90;61.70
23579;DHT22;11967;50.852;4.400;2023-06-04T13:18:58;24.90;61.40
23579;DHT22;11967;50.852;4.400;2023-06-04T13:21:24;24.90;60.80
23579;DHT22;11967;50.852;4.400;2023-06-04T13:23:49;25.00;60.40
23579;DHT22;11967;50.852;4.400;2023-06-04T13:26:18;25.00;60.40
23579;DHT22;11967;50.852;4.400;2023-06-04T13:28:46;25.00;60.70
23579;DHT22;11967;50.852;4.400;2023-06-04T13:31:11;25.00;60.40
23579;DHT22;11967;50.852;4.400;2023-06-04T13:33:37;24.90;60.40
23579;DHT22;11967;50.852;4.400;2023-06-04T13:36:04;25.00;60.70
23579;DHT22;11967;50.852;4.400;2023-06-04T13:38:31;25.00;60.60
23579;DHT22;11967;50.852;4.400;2023-06-04T13:41:00;25.10;59.50
23579;DHT22;11967;50.852;4.400;2023-06-04T13:43:26;25.10;59.00
23579;DHT22;11967;50.852;4.400;2023-06-04T13:45:52;25.20;59.00
23579;DHT22;11967;50.852;4.400;2023-06-04T13:48:19;25.10;59.30
23579;DHT22;11967;50.852;4.400;2023-06-04T13:50:44;25.00;59.30
23579;DHT22;11967;50.852;4.400;2023-06-04T13:53:10;24.90;59.80
23579;DHT22;11967;50.852;4.400;2023-06-04T13:55:38;24.90;60.10
23579;DHT22;11967;50.852;4.400;2023-06-04T13:58:04;25.00;59.70
23579;DHT22;11967;50.852;4.400;2023-06-04T14:00:30;25.10;59.40
23579;DHT22;11967;50.852;4.400;2023-06-04T14:02:56;25.10;59.00
23579;DHT22;11967;50.852;4.400;2023-06-04T14:05:24;25.20;59.10
23579;DHT22;11967;50.852;4.400;2023-06-04T14:07:50;25.10;59.40
23579;DHT22;11967;50.852;4.400;2023-06-04T14:10:16;25.10;59.10
23579;DHT22;11967;50.852;4.400;2023-06-04T14:12:42;25.20;59.50
23579;DHT22;11967;50.852;4.400;2023-06-04T14:15:09;25.30;58.60
23579;DHT22;11967;50.852;4.400;2023-06-04T14:17:38;25.30;58.90
23579;DHT22;11967;50.852;4.400;2023-06-04T14:20:05;25.40;58.70
23579;DHT22;11967;50.852;4.400;2023-06-04T14:22:34;25.30;58.30
23579;DHT22;11967;50.852;4.400;2023-06-04T14:25:02;25.30;58.20
23579;DHT22;11967;50.852;4.400;2023-06-04T14:27:28;25.30;58.20
23579;DHT22;11967;50.852;4.400;2023-06-04T14:29:55;25.50;59.40
23579;DHT22;11967;50.852;4.400;2023-06-04T14:32:20;25.60;59.10
23579;DHT22;11967;50.852;4.400;2023-06-04T14:34:46;25.60;57.00
23579;DHT22;11967;50.852;4.400;2023-06-04T14:37:11;25.50;57.00
23579;DHT22;11967;50.852;4.400;2023-06-04T14:39:37;25.40;56.60
23579;DHT22;11967;50.852;4.400;2023-06-04T14:42:03;25.40;56.70
23579;DHT22;11967;50.852;4.400;2023-06-04T14:44:28;25.40;56.30
23579;DHT22;11967;50.852;4.400;2023-06-04T14:46:55;25.30;56.00
23579;DHT22;11967;50.852;4.400;2023-06-04T14:49:21;25.20;56.10
23579;DHT22;11967;50.852;4.400;2023-06-04T14:51:46;25.30;56.10
23579;DHT22;11967;50.852;4.400;2023-06-04T14:54:12;25.30;56.10
23579;DHT22;11967;50.852;4.400;2023-06-04T14:56:39;25.30;56.30
23579;DHT22;11967;50.852;4.400;2023-06-04T14:59:05;25.30;56.00
23579;DHT22;11967;50.852;4.400;2023-06-04T15:01:35;25.30;56.00
23579;DHT22;11967;50.852;4.400;2023-06-04T15:04:02;25.40;55.80
23579;DHT22;11967;50.852;4.400;2023-06-04T15:06:28;25.50;55.20
23579;DHT22;11967;50.852;4.400;2023-06-04T15:08:54;25.40;54.70
23579;DHT22;11967;50.852;4.400;2023-06-04T15:11:19;25.40;54.70
23579;DHT22;11967;50.852;4.400;2023-06-04T15:13:45;25.50;54.80
23579;DHT22;11967;50.852;4.400;2023-06-04T15:16:11;25.40;54.80
23579;DHT22;11967;50.852;4.400;2023-06-04T15:18:37;25.40;55.30
23579;DHT22;11967;50.852;4.400;2023-06-04T15:21:03;25.40;55.00
23579;DHT22;11967;50.852;4.400;2023-06-04T15:23:28;25.40;54.50
23579;DHT22;11967;50.852;4.400;2023-06-04T15:25:54;25.30;54.10
23579;DHT22;11967;50.852;4.400;2023-06-04T15:28:20;25.40;54.00
23579;DHT22;11967;50.852;4.400;2023-06-04T15:30:49;25.30;54.30
23579;DHT22;11967;50.852;4.400;2023-06-04T15:33:17;25.30;53.60
23579;DHT22;11967;50.852;4.400;2023-06-04T15:35:42;25.40;53.90